createdAt,value
2023-01-05T00:01:43.663Z,1.20
2023-01-05T00:04:11.625Z,1.10
2023-01-05T00:06:39.907Z,3.25
2023-01-05T00:09:08.902Z,1.10
2023-01-05T00:11:54.856Z,1.02
2023-01-05T00:14:46.811Z,1.08
2023-01-05T00:17:36.247Z,1.10
2023-01-05T00:20:25.368Z,1.45
2023-01-05T00:22:54.459Z,1.20
2023-01-05T00:25:25.172Z,1.30
2023-01-05T00:27:54.015Z,1.17
2023-01-05T00:30:24.125Z,1.27
2023-01-05T00:32:52.409Z,1.30
2023-01-05T00:35:20.433Z,1.10
2023-01-05T00:37:48.079Z,1.38
2023-01-05T00:40:18.133Z,1.33
2023-01-05T00:42:46.051Z,1.50
2023-01-05T00:45:15.246Z,1.30
2023-01-05T00:47:42.632Z,1.45
2023-01-05T00:50:13.731Z,1.10
2023-01-05T00:52:41.004Z,1.40
2023-01-05T00:55:08.804Z,1.33
2023-01-05T00:57:36.549Z,1.15
2023-01-05T01:00:09.403Z,1.25
2023-01-05T01:02:36.656Z,1.20
2023-01-05T01:05:04.928Z,1.33
2023-01-05T01:07:32.172Z,1.20
2023-01-05T01:09:59.368Z,1.10
2023-01-05T01:12:29.338Z,1.00
2023-01-05T01:14:58.093Z,1.20
2023-01-05T01:17:25.552Z,1.10
2023-01-05T01:19:52.795Z,1.10
2023-01-05T01:22:20.311Z,1.20
2023-01-05T01:24:48.739Z,1.20
2023-01-05T01:27:15.988Z,1.10
2023-01-05T01:29:43.346Z,1.10
2023-01-05T01:32:10.956Z,1.30
2023-01-05T01:34:40.061Z,1.30
2023-01-05T01:37:07.862Z,1.25
2023-01-05T01:39:42.027Z,1.30
2023-01-05T01:42:15.876Z,1.27
2023-01-05T01:44:47.508Z,1.20
2023-01-05T01:47:22.279Z,1.52
2023-01-05T01:49:50.989Z,1.80
2023-01-05T01:52:22.008Z,1.75
2023-01-05T01:54:51.379Z,1.80
2023-01-05T01:57:18.990Z,1.60
2023-01-05T01:59:46.466Z,1.77
2023-01-05T02:02:14.460Z,1.80
2023-01-05T02:04:43.307Z,1.60
2023-01-05T02:07:14.296Z,1.70
2023-01-05T02:09:41.572Z,1.77
2023-01-05T02:12:38.259Z,1.30
2023-01-05T02:15:22.066Z,1.10
2023-01-05T02:18:29.928Z,1.05
2023-01-05T02:21:28.139Z,1.10
2023-01-05T02:24:11.527Z,1.15
2023-01-05T02:26:47.867Z,1.20
2023-01-05T02:29:58.279Z,1.00
2023-01-05T02:32:53.046Z,1.13
2023-01-05T02:35:23.008Z,0.93
2023-01-05T02:38:01.646Z,1.08
2023-01-05T02:40:37.623Z,1.17
2023-01-05T02:43:07.741Z,1.10
2023-01-05T02:45:35.082Z,1.00
2023-01-05T02:48:02.400Z,0.80
2023-01-05T02:50:38.459Z,0.90
2023-01-05T02:53:12.120Z,1.08
2023-01-05T02:55:45.562Z,0.95
2023-01-05T02:58:39.347Z,1.10
2023-01-05T03:01:33.857Z,1.00
2023-01-05T03:04:15.327Z,1.20
2023-01-05T03:06:56.764Z,1.00
2023-01-05T03:09:36.868Z,0.98
2023-01-05T03:12:46.036Z,0.80
2023-01-05T03:15:28.320Z,0.73
2023-01-05T03:18:07.502Z,0.80
2023-01-05T03:20:40.625Z,0.82
2023-01-05T03:23:30.244Z,0.90
2023-01-05T03:26:16.483Z,0.98
2023-01-05T03:29:10.553Z,0.90
2023-01-05T03:32:15.893Z,0.90
2023-01-05T03:35:24.519Z,0.90
2023-01-05T03:37:59.308Z,1.00
2023-01-05T03:40:31.107Z,0.90
2023-01-05T03:42:59.381Z,0.80
2023-01-05T03:45:36.503Z,0.80
2023-01-05T03:48:03.985Z,0.90
2023-01-05T03:50:32.690Z,0.80
2023-01-05T03:53:00.219Z,0.98
2023-01-05T03:55:30.372Z,0.80
2023-01-05T03:57:57.690Z,0.80
2023-01-05T04:00:25.632Z,0.77
2023-01-05T04:03:01.099Z,0.80
2023-01-05T04:05:28.767Z,0.75
2023-01-05T04:07:55.995Z,0.70
2023-01-05T04:10:22.985Z,0.90
2023-01-05T04:12:50.135Z,0.80
2023-01-05T04:15:18.813Z,0.85
2023-01-05T04:17:46.605Z,0.70
2023-01-05T04:20:14.001Z,0.80
2023-01-05T04:22:41.652Z,0.85
2023-01-05T04:25:10.085Z,0.70
2023-01-05T04:27:37.972Z,0.70
2023-01-05T04:30:07.136Z,0.90
2023-01-05T04:32:34.391Z,0.90
2023-01-05T04:35:10.384Z,0.90
2023-01-05T04:37:40.145Z,1.30
2023-01-05T04:40:08.818Z,1.10
2023-01-05T04:42:43.901Z,0.93
2023-01-05T04:45:11.640Z,1.00
2023-01-05T04:47:38.857Z,0.95
2023-01-05T04:50:06.850Z,0.70
2023-01-05T04:52:34.188Z,1.20
2023-01-05T04:55:02.555Z,0.90
2023-01-05T04:57:31.097Z,1.00
2023-01-05T04:59:58.581Z,1.00
2023-01-05T05:02:26.008Z,1.02
2023-01-05T05:04:54.523Z,1.10
2023-01-05T05:07:22.956Z,0.90
2023-01-05T05:09:50.945Z,1.05
2023-01-05T05:12:20.740Z,0.77
2023-01-05T05:14:51.320Z,0.80
2023-01-05T05:17:19.085Z,0.80
2023-01-05T05:19:46.401Z,0.80
2023-01-05T05:22:13.883Z,0.82
2023-01-05T05:24:41.862Z,0.73
2023-01-05T05:27:09.664Z,0.95
2023-01-05T05:29:36.687Z,0.70
2023-01-05T05:32:04.086Z,0.75
2023-01-05T05:34:31.136Z,0.88
2023-01-05T05:36:58.192Z,0.70
2023-01-05T05:39:25.195Z,0.70
2023-01-05T05:41:52.364Z,0.63
2023-01-05T05:44:19.643Z,0.73
2023-01-05T05:46:46.841Z,0.60
2023-01-05T05:49:14.050Z,0.80
2023-01-05T05:51:41.205Z,0.70
2023-01-05T05:54:08.773Z,1.00
2023-01-05T05:56:37.257Z,1.00
2023-01-05T05:59:04.401Z,0.93
2023-01-05T06:01:31.686Z,1.13
2023-01-05T06:03:58.927Z,1.10
2023-01-05T06:06:26.175Z,1.15
2023-01-05T06:08:53.271Z,0.85
2023-01-05T06:11:20.249Z,1.10
2023-01-05T06:13:48.899Z,1.30
2023-01-05T06:16:16.476Z,1.30
2023-01-05T06:18:43.654Z,1.20
2023-01-05T06:21:10.780Z,1.25
2023-01-05T06:23:37.857Z,1.50
2023-01-05T06:26:08.779Z,1.20
2023-01-05T06:28:35.741Z,1.13
2023-01-05T06:31:03.240Z,1.20
2023-01-05T06:33:30.541Z,1.33
2023-01-05T06:35:58.946Z,1.30
2023-01-05T06:38:26.612Z,0.90
2023-01-05T06:40:54.755Z,1.30
2023-01-05T06:43:21.955Z,1.50
2023-01-05T06:45:49.145Z,1.20
2023-01-05T06:48:16.202Z,1.17
2023-01-05T06:50:43.336Z,1.35
2023-01-05T06:53:10.567Z,1.27
2023-01-05T06:55:37.601Z,1.40
2023-01-05T06:58:04.698Z,1.38
2023-01-05T07:00:32.044Z,2.10
2023-01-05T07:02:59.444Z,1.70
2023-01-05T07:05:26.731Z,1.63
2023-01-05T07:07:53.973Z,1.70
2023-01-05T07:10:21.157Z,1.92
2023-01-05T07:12:48.197Z,1.90
2023-01-05T07:15:15.332Z,2.47
2023-01-05T07:17:42.402Z,2.10
2023-01-05T07:20:10.041Z,2.10
2023-01-05T07:22:37.515Z,2.60
2023-01-05T07:25:04.811Z,2.35
2023-01-05T07:27:31.959Z,2.63
2023-01-05T07:29:59.187Z,3.22
2023-01-05T07:32:26.380Z,3.47
2023-01-05T07:34:55.871Z,3.42
2023-01-05T07:37:25.260Z,2.88
2023-01-05T07:39:53.282Z,2.78
2023-01-05T07:42:20.651Z,2.20
2023-01-05T07:44:49.395Z,2.30
2023-01-05T07:47:16.605Z,2.30
2023-01-05T07:49:43.749Z,2.47
2023-01-05T07:52:10.823Z,2.90
2023-01-05T07:54:38.016Z,2.85
2023-01-05T07:57:05.087Z,2.97
2023-01-05T07:59:32.274Z,2.90
2023-01-05T08:01:59.651Z,3.40
2023-01-05T08:04:27.016Z,2.85
2023-01-05T08:06:54.458Z,2.20
2023-01-05T08:09:40.045Z,2.30
2023-01-05T08:12:07.408Z,2.38
2023-01-05T08:14:34.635Z,2.00
2023-01-05T08:17:01.835Z,2.08
2023-01-05T08:19:29.257Z,1.85
2023-01-05T08:21:56.955Z,1.95
2023-01-05T08:24:24.686Z,2.22
2023-01-05T08:26:51.983Z,2.58
2023-01-05T08:29:19.191Z,2.50
2023-01-05T08:31:46.914Z,2.42
2023-01-05T08:34:14.556Z,2.60
2023-01-05T08:36:41.795Z,2.70
2023-01-05T08:39:11.203Z,2.85
2023-01-05T08:41:40.140Z,2.58
2023-01-05T08:44:12.341Z,2.75
2023-01-05T08:46:39.795Z,2.65
2023-01-05T08:49:09.747Z,2.30
2023-01-05T08:51:37.422Z,2.30
2023-01-05T08:54:04.596Z,2.08
2023-01-05T08:56:39.153Z,2.35
2023-01-05T08:59:07.749Z,2.13
2023-01-05T09:01:35.000Z,2.30
2023-01-05T09:04:02.091Z,2.28
2023-01-05T09:06:29.708Z,2.22
2023-01-05T09:08:56.860Z,2.30
2023-01-05T09:11:25.757Z,2.40
2023-01-05T09:13:58.325Z,2.42
2023-01-05T09:19:17.050Z,2.42
2023-01-05T09:21:44.788Z,2.80
2023-01-05T09:24:13.023Z,2.90
2023-01-05T09:26:41.691Z,2.83
2023-01-05T09:29:09.767Z,3.00
2023-01-05T09:31:37.007Z,3.13
2023-01-05T09:34:04.501Z,3.15
2023-01-05T09:36:32.410Z,3.20
2023-01-05T09:38:59.857Z,3.22
2023-01-05T09:41:52.907Z,2.97
2023-01-05T09:44:33.808Z,3.60
2023-01-05T09:47:12.723Z,3.22
2023-01-05T09:49:41.199Z,3.33
2023-01-05T09:52:10.986Z,3.03
2023-01-05T09:54:39.320Z,3.08
2023-01-05T09:57:19.503Z,3.33
2023-01-05T09:59:53.799Z,3.30
2023-01-05T10:02:36.242Z,3.47
2023-01-05T10:05:05.901Z,2.95
2023-01-05T10:08:11.084Z,3.30
2023-01-05T10:11:14.395Z,3.88
2023-01-05T10:13:48.713Z,3.90
2023-01-05T10:16:17.995Z,4.10
2023-01-05T10:18:46.445Z,4.55
2023-01-05T10:21:43.399Z,3.70
2023-01-05T10:24:22.488Z,3.13
2023-01-05T10:27:23.510Z,3.58
2023-01-05T10:29:45.447Z,2.50
2023-01-05T10:32:15.661Z,2.20
2023-01-05T10:34:48.836Z,2.85
2023-01-05T10:37:43.189Z,2.40
2023-01-05T10:40:22.006Z,2.50
2023-01-05T10:43:09.893Z,3.10
2023-01-05T10:45:57.358Z,2.60
2023-01-05T10:48:31.072Z,3.45
2023-01-05T10:50:58.996Z,3.08
2023-01-05T10:53:28.814Z,3.30
2023-01-05T10:56:01.605Z,3.30
2023-01-05T10:58:39.293Z,3.88
2023-01-05T11:01:29.108Z,3.80
2023-01-05T11:07:06.313Z,3.60
2023-01-05T11:09:39.074Z,3.60
2023-01-05T11:12:06.467Z,3.45
2023-01-05T11:14:42.420Z,3.90
2023-01-05T11:17:20.850Z,3.72
2023-01-05T11:19:51.343Z,3.33
2023-01-05T11:22:40.059Z,3.40
2023-01-05T11:25:14.795Z,3.42
2023-01-05T11:27:42.100Z,4.05
2023-01-05T11:30:15.239Z,3.50
2023-01-05T11:32:47.054Z,3.60
2023-01-05T11:35:37.448Z,3.67
2023-01-05T11:38:06.011Z,3.95
2023-01-05T11:40:35.975Z,3.67
2023-01-05T11:43:11.793Z,3.15
2023-01-05T11:45:47.204Z,3.10
2023-01-05T11:48:25.862Z,3.28
2023-01-05T11:50:56.384Z,3.05
2023-01-05T11:53:35.415Z,2.60
2023-01-05T11:56:08.493Z,3.10
2023-01-05T11:58:45.518Z,2.75
2023-01-05T12:01:30.733Z,3.22
2023-01-05T12:04:07.083Z,3.28
2023-01-05T12:06:34.189Z,2.78
2023-01-05T12:09:22.734Z,2.80
2023-01-05T12:12:06.159Z,2.83
2023-01-05T12:14:45.208Z,3.20
2023-01-05T12:17:20.859Z,3.28
2023-01-05T12:20:23.616Z,2.88
2023-01-05T12:23:28.152Z,3.17
2023-01-05T12:26:04.806Z,2.90
2023-01-05T12:28:41.129Z,2.72
2023-01-05T12:34:23.058Z,3.10
2023-01-05T12:37:19.376Z,2.83
2023-01-05T12:40:04.586Z,2.88
2023-01-05T12:42:50.217Z,2.97
2023-01-05T12:45:39.281Z,3.30
2023-01-05T12:48:08.281Z,2.67
2023-01-05T12:50:38.050Z,3.30
2023-01-05T12:53:28.559Z,3.28
2023-01-05T12:56:02.223Z,2.40
2023-01-05T12:58:38.555Z,3.60
2023-01-05T13:01:13.856Z,3.70
2023-01-05T13:03:48.872Z,3.22
2023-01-05T13:06:22.935Z,3.58
2023-01-05T13:09:18.621Z,3.88
2023-01-05T13:11:52.063Z,4.30
2023-01-05T13:14:21.891Z,3.78
2023-01-05T13:17:00.992Z,3.60
2023-01-05T13:19:44.465Z,4.18
2023-01-05T13:22:20.700Z,4.25
2023-01-05T13:25:14.984Z,4.32
2023-01-05T13:27:43.349Z,4.05
2023-01-05T13:30:42.187Z,3.55
2023-01-05T13:33:56.949Z,4.32
2023-01-05T13:36:32.717Z,3.50
2023-01-05T13:39:19.261Z,3.47
2023-01-05T13:42:08.562Z,2.97
2023-01-05T13:44:47.734Z,2.72
2023-01-05T13:47:45.908Z,3.03
2023-01-05T13:50:47.964Z,2.05
2023-01-05T13:53:20.168Z,3.53
2023-01-05T14:12:54.392Z,1.58
2023-01-05T14:15:35.595Z,1.55
2023-01-05T14:18:07.245Z,1.23
2023-01-05T14:20:37.704Z,1.00
2023-01-05T14:23:29.747Z,0.90
2023-01-05T14:26:07.463Z,0.98
2023-01-05T14:28:34.698Z,1.20
2023-01-05T14:31:21.773Z,1.20
2023-01-05T14:33:57.493Z,0.70
2023-01-05T14:36:37.484Z,0.50
2023-01-05T14:39:20.478Z,1.00
2023-01-05T14:41:56.117Z,0.77
2023-01-05T14:44:32.490Z,1.08
2023-01-05T14:47:05.816Z,1.02
2023-01-05T14:50:03.738Z,1.88
2023-01-05T14:53:04.204Z,1.40
2023-01-05T14:56:01.737Z,1.17
2023-01-05T14:58:41.436Z,1.50
2023-01-05T15:01:25.669Z,2.10
2023-01-05T15:04:11.377Z,1.63
2023-01-05T15:06:56.876Z,2.00
2023-01-05T15:09:42.955Z,1.98
2023-01-05T15:12:15.433Z,2.13
2023-01-05T15:15:04.171Z,2.05
2023-01-05T15:17:54.275Z,2.20
2023-01-05T15:20:45.491Z,2.17
2023-01-05T15:23:43.822Z,2.17
2023-01-05T15:26:17.354Z,2.22
2023-01-05T15:29:00.242Z,2.10
2023-01-05T15:31:55.421Z,2.17
2023-01-05T15:34:43.339Z,2.05
2023-01-05T15:37:40.133Z,2.17
2023-01-05T15:40:32.455Z,2.63
2023-01-05T15:43:14.613Z,3.15
2023-01-05T15:45:43.370Z,3.10
2023-01-05T15:48:23.509Z,3.60
2023-01-05T15:50:56.708Z,4.00
2023-01-05T15:53:33.339Z,4.43
2023-01-05T15:56:02.644Z,4.60
2023-01-05T15:58:32.968Z,3.70
2023-01-05T16:01:15.346Z,3.90
2023-01-05T16:03:46.988Z,3.75
2023-01-05T16:06:24.447Z,4.75
2023-01-05T16:08:54.180Z,4.60
2023-01-05T16:11:40.640Z,3.58
2023-01-05T16:14:37.255Z,3.45
2023-01-05T16:17:19.867Z,3.58
2023-01-05T16:19:51.615Z,3.35
2023-01-05T16:22:37.181Z,3.08
2023-01-05T16:25:06.551Z,2.67
2023-01-05T16:27:38.675Z,3.40
2023-01-05T16:30:33.686Z,3.28
2023-01-05T16:33:05.539Z,3.10
2023-01-05T16:35:48.784Z,2.65
2023-01-05T16:38:20.349Z,3.00
2023-01-05T16:40:50.626Z,3.05
2023-01-05T16:43:20.407Z,3.15
2023-01-05T16:45:48.477Z,2.70
2023-01-05T16:48:39.025Z,3.00
2023-01-05T16:51:15.571Z,2.85
2023-01-05T16:53:46.003Z,3.30
2023-01-05T16:56:48.855Z,3.35
2023-01-05T16:59:50.273Z,4.35
2023-01-05T17:02:29.387Z,4.50
2023-01-05T17:04:56.840Z,3.78
2023-01-05T17:07:25.659Z,3.00
2023-01-05T17:10:00.397Z,3.47
2023-01-05T17:12:27.590Z,2.50
2023-01-05T17:14:58.387Z,2.83
2023-01-05T17:17:27.505Z,3.47
2023-01-05T17:19:56.453Z,4.05
2023-01-05T17:22:23.979Z,3.33
2023-01-05T17:24:52.308Z,3.97
2023-01-05T17:27:19.611Z,3.65
2023-01-05T17:29:47.153Z,4.60
2023-01-05T17:32:14.212Z,3.90
2023-01-05T17:34:42.864Z,3.83
2023-01-05T17:37:16.399Z,3.47
2023-01-05T17:39:43.503Z,4.05
2023-01-05T17:42:39.777Z,4.15
2023-01-05T17:45:07.391Z,4.00
2023-01-05T17:50:02.540Z,4.40
2023-01-05T17:52:29.582Z,4.13
2023-01-05T17:54:56.726Z,4.30
2023-01-05T17:57:24.094Z,3.58
2023-01-05T17:59:51.089Z,4.00
2023-01-05T18:02:18.266Z,3.42
2023-01-05T18:04:45.440Z,3.40
2023-01-05T18:07:12.424Z,3.65
2023-01-05T18:09:39.816Z,3.47
2023-01-05T18:12:07.144Z,2.83
2023-01-05T18:14:34.267Z,3.63
2023-01-05T18:17:01.476Z,3.30
2023-01-05T18:19:29.492Z,3.45
2023-01-05T18:21:58.823Z,3.58
2023-01-05T18:24:25.817Z,3.40
2023-01-05T18:26:55.577Z,3.97
2023-01-05T18:29:23.291Z,3.92
2023-01-05T18:31:50.400Z,3.53
2023-01-05T18:34:17.463Z,3.22
2023-01-05T18:36:44.507Z,3.95
2023-01-05T18:39:11.579Z,3.20
2023-01-05T18:41:38.673Z,4.43
2023-01-05T18:44:05.883Z,3.63
2023-01-05T18:46:32.926Z,3.33
2023-01-05T18:49:00.248Z,3.40
2023-01-05T18:51:27.710Z,3.38
2023-01-05T18:53:54.897Z,3.10
2023-01-05T18:56:21.956Z,3.15
2023-01-05T18:58:49.061Z,3.33
2023-01-05T19:01:19.699Z,3.00
2023-01-05T19:03:47.072Z,3.08
2023-01-05T19:06:16.324Z,2.60
2023-01-05T19:08:44.368Z,2.78
2023-01-05T19:11:24.813Z,2.83
2023-01-05T19:13:54.437Z,2.67
2023-01-05T19:16:23.691Z,2.20
2023-01-05T19:18:55.890Z,2.42
2023-01-05T19:21:25.115Z,3.13
2023-01-05T19:23:57.191Z,1.98
2023-01-05T19:26:24.907Z,2.00
2023-01-05T19:28:52.175Z,2.67
2023-01-05T19:31:20.065Z,2.70
2023-01-05T19:33:47.156Z,2.33
2023-01-05T19:36:18.148Z,2.28
2023-01-05T19:38:45.977Z,2.58
2023-01-05T19:41:16.141Z,2.45
2023-01-05T19:43:43.572Z,2.30
2023-01-05T19:46:13.461Z,2.25
2023-01-05T19:48:44.484Z,2.50
2023-01-05T19:51:17.535Z,2.20
2023-01-05T19:53:45.195Z,2.45
2023-01-05T19:56:15.966Z,2.40
2023-01-05T19:58:43.952Z,2.45
2023-01-05T20:01:13.654Z,2.63
2023-01-05T20:03:45.100Z,2.30
2023-01-05T20:06:21.285Z,2.33
2023-01-05T20:08:52.764Z,2.58
2023-01-05T20:11:35.856Z,2.78
2023-01-05T20:14:14.904Z,2.90
2023-01-05T20:16:44.119Z,3.30
2023-01-05T20:19:11.860Z,3.08
2023-01-05T20:21:39.237Z,3.10
2023-01-05T20:24:12.903Z,3.30
2023-01-05T20:26:42.123Z,3.53
2023-01-05T20:29:10.447Z,3.35
2023-01-05T20:31:44.937Z,3.15
2023-01-05T20:34:15.705Z,3.42
2023-01-05T20:36:43.091Z,2.80
2023-01-05T20:39:12.384Z,3.38
2023-01-05T20:41:41.559Z,2.72
2023-01-05T20:44:10.099Z,2.90
2023-01-05T20:46:40.481Z,3.37
2023-01-05T20:49:07.743Z,2.72
2023-01-05T20:51:35.057Z,3.13
2023-01-05T20:54:02.776Z,3.47
2023-01-05T20:56:38.712Z,3.70
2023-01-05T20:59:09.022Z,3.27
2023-01-05T21:01:37.283Z,3.47
2023-01-05T21:04:06.295Z,3.80
2023-01-05T21:06:34.169Z,3.90
2023-01-05T21:09:01.758Z,3.80
2023-01-05T21:11:29.717Z,3.97
2023-01-05T21:13:58.173Z,4.23
2023-01-05T21:16:28.356Z,4.20
2023-01-05T21:18:55.969Z,4.53
2023-01-05T21:21:24.628Z,5.10
2023-01-05T21:23:53.039Z,4.67
2023-01-05T21:26:21.991Z,5.87
2023-01-05T21:28:51.346Z,4.80
2023-01-05T21:31:21.796Z,4.30
2023-01-05T21:33:49.298Z,3.30
2023-01-05T21:36:26.773Z,3.10
2023-01-05T21:39:03.703Z,2.60
2023-01-05T21:41:51.229Z,2.57
2023-01-05T21:44:20.090Z,2.23
2023-01-05T21:46:48.343Z,2.30
2023-01-05T21:49:16.219Z,2.20
2023-01-05T21:52:02.255Z,2.07
2023-01-05T21:54:48.145Z,2.03
2023-01-05T21:57:15.862Z,2.60
2023-01-05T21:59:43.540Z,2.50
2023-01-05T22:02:11.494Z,3.00
2023-01-05T22:04:38.565Z,2.97
2023-01-05T22:07:07.450Z,2.87
2023-01-05T22:09:36.060Z,3.10
2023-01-05T22:12:07.295Z,3.07
2023-01-05T22:14:35.225Z,2.63
2023-01-05T22:17:02.430Z,2.57
2023-01-05T22:19:29.695Z,2.43
2023-01-05T22:21:57.889Z,2.43
2023-01-05T22:24:25.621Z,2.87
2023-01-05T22:26:52.662Z,2.83
2023-01-05T22:29:19.952Z,2.80
2023-01-05T22:31:47.145Z,2.53
2023-01-05T22:34:14.260Z,2.90
2023-01-05T22:36:41.271Z,3.20
2023-01-05T22:39:08.434Z,3.10
2023-01-05T22:41:35.544Z,2.83
2023-01-05T22:44:02.719Z,3.10
2023-01-05T22:46:30.825Z,3.20
2023-01-05T22:48:58.949Z,3.27
2023-01-05T22:51:30.195Z,3.90
2023-01-05T22:53:58.450Z,3.67
2023-01-05T22:56:27.556Z,3.50
2023-01-05T22:58:56.464Z,3.40
2023-01-05T23:01:27.032Z,3.77
2023-01-05T23:03:55.620Z,3.10
2023-01-05T23:06:23.504Z,3.97
2023-01-05T23:08:51.775Z,3.27
2023-01-05T23:11:28.767Z,3.50
2023-01-05T23:13:56.982Z,3.90
2023-01-05T23:16:25.623Z,3.80
2023-01-05T23:18:53.557Z,3.93
2023-01-05T23:21:22.234Z,4.17
2023-01-05T23:23:52.041Z,4.33
2023-01-05T23:26:19.405Z,4.43
2023-01-05T23:28:46.987Z,4.30
2023-01-05T23:31:16.305Z,4.80
2023-01-05T23:33:44.219Z,4.83
2023-01-05T23:36:12.927Z,4.97
2023-01-05T23:38:40.226Z,5.03
2023-01-05T23:41:10.170Z,4.60
2023-01-05T23:43:39.519Z,4.10
2023-01-05T23:46:09.744Z,3.90
2023-01-05T23:48:38.269Z,4.37
2023-01-05T23:51:07.890Z,4.43
2023-01-05T23:53:34.926Z,4.17
2023-01-05T23:56:10.697Z,4.83
2023-01-05T23:58:38.495Z,4.40
